This is the latest recevied weather packets stored in our database for station/object KK7KRZ. If no packets are shown the sender has not sent any weather packets the latest 10 day(s).
| Time | Temp. | Humidity | Pressure | Rain* | Wind** | Luminosity | Snow |
|---|---|---|---|---|---|---|---|
| 1778029502 | 17.78° C | 72% | 1014.7 hPa | 0 mm | - | 40 W/m² | - |
| 1778029197 | 17.78° C | 72% | 1014.6 hPa | 0 mm | - | 39 W/m² | - |
| 1778028895 | 17.78° C | 71% | 1014.7 hPa | 0 mm | - | 46 W/m² | - |
| 1778028590 | 17.78° C | 71% | 1014.9 hPa | 0 mm | - | 48 W/m² | - |
| 1778028288 | 18.33° C | 71% | 1014.8 hPa | 0 mm | - | 40 W/m² | - |
| 1778027984 | 18.33° C | 71% | 1014.7 hPa | 0 mm | - | 39 W/m² | - |
| 1778027681 | 17.78° C | 71% | 1014.8 hPa | 0 mm | - | 46 W/m² | - |
| 1778027377 | 18.33° C | 70% | 1014.6 hPa | 0 mm | - | 48 W/m² | - |
| 1778027073 | 18.33° C | 70% | 1014.7 hPa | 0 mm | - | 49 W/m² | - |
| 1778026769 | 18.33° C | 70% | 1014.9 hPa | 0 mm | - | 55 W/m² | - |
| 1778026466 | 18.33° C | 69% | 1014.8 hPa | 0 mm | - | 43 W/m² | - |
| 1778026163 | 18.33° C | 68% | 1014.8 hPa | 0 mm | - | 44 W/m² | - |
| 1778025861 | 18.89° C | 68% | 1014.8 hPa | 0 mm | - | 46 W/m² | - |
| 1778025557 | 18.89° C | 67% | 1014.9 hPa | 0 mm | - | 59 W/m² | - |
| 1778025256 | 18.89° C | 70% | 1015.1 hPa | 0 mm | - | 80 W/m² | - |
| 1778024952 | 18.89° C | 67% | 1014.9 hPa | 0 mm | - | 101 W/m² | - |
| 1778024650 | 18.89° C | 66% | 1014.9 hPa | 0 mm | - | 113 W/m² | - |
| 1778024346 | 18.89° C | 68% | 1015.3 hPa | 0 mm | - | 98 W/m² | - |
| 1778024044 | 18.33° C | 68% | 1015.4 hPa | 0 mm | - | 88 W/m² | - |
| 1778023741 | 18.89° C | 69% | 1015.4 hPa | 0 mm | - | 81 W/m² | - |
| 1778023439 | 18.89° C | 69% | 1015.2 hPa | 0 mm | - | 81 W/m² | - |
| 1778023135 | 18.89° C | 69% | 1015.3 hPa | 0 mm | - | 81 W/m² | - |
| 1778022833 | 18.89° C | 68% | 1015.4 hPa | 0 mm | - | 80 W/m² | - |
| 1778022531 | 18.89° C | 66% | 1015.5 hPa | 0 mm | - | 89 W/m² | - |
| 1778022228 | 18.89° C | 66% | 1015.5 hPa | 0 mm | - | 229 W/m² | - |
* Rain latest hour (hover to see other rain measurements)
** Current wind speed in m/s (hover to see current wind gust speed)